sensor_id;sensor_type;location;lat;lon;timestamp;P1;durP1;ratioP1;P2;durP2;ratioP2
34505;SDS011;20748;42.632;23.198;2024-03-22T00:00:06;27.85;;;12.65;;
34505;SDS011;20748;42.632;23.198;2024-03-22T00:02:46;37.22;;;13.90;;
34505;SDS011;20748;42.632;23.198;2024-03-22T00:05:18;29.85;;;12.82;;
34505;SDS011;20748;42.632;23.198;2024-03-22T00:07:52;35.10;;;14.50;;
34505;SDS011;20748;42.632;23.198;2024-03-22T00:10:24;98.13;;;36.33;;
34505;SDS011;20748;42.632;23.198;2024-03-22T00:12:57;109.32;;;41.28;;
34505;SDS011;20748;42.632;23.198;2024-03-22T00:15:28;95.93;;;34.97;;
34505;SDS011;20748;42.632;23.198;2024-03-22T00:18:03;84.68;;;31.55;;
34505;SDS011;20748;42.632;23.198;2024-03-22T00:20:35;58.58;;;23.17;;
34505;SDS011;20748;42.632;23.198;2024-03-22T00:23:07;56.30;;;21.27;;
34505;SDS011;20748;42.632;23.198;2024-03-22T00:25:39;40.10;;;15.93;;
34505;SDS011;20748;42.632;23.198;2024-03-22T00:28:12;56.92;;;21.98;;
34505;SDS011;20748;42.632;23.198;2024-03-22T00:30:44;49.00;;;19.40;;
34505;SDS011;20748;42.632;23.198;2024-03-22T00:33:18;45.08;;;17.92;;
34505;SDS011;20748;42.632;23.198;2024-03-22T00:35:50;48.30;;;18.38;;
34505;SDS011;20748;42.632;23.198;2024-03-22T00:38:22;37.00;;;13.85;;
34505;SDS011;20748;42.632;23.198;2024-03-22T00:40:54;32.40;;;12.45;;
34505;SDS011;20748;42.632;23.198;2024-03-22T00:43:27;31.95;;;12.95;;
34505;SDS011;20748;42.632;23.198;2024-03-22T00:45:59;44.17;;;14.88;;
34505;SDS011;20748;42.632;23.198;2024-03-22T00:48:33;37.00;;;11.48;;
34505;SDS011;20748;42.632;23.198;2024-03-22T00:51:06;24.90;;;10.38;;
34505;SDS011;20748;42.632;23.198;2024-03-22T00:53:39;21.75;;;10.63;;
34505;SDS011;20748;42.632;23.198;2024-03-22T00:56:11;34.50;;;13.13;;
34505;SDS011;20748;42.632;23.198;2024-03-22T00:58:43;29.75;;;11.07;;
34505;SDS011;20748;42.632;23.198;2024-03-22T01:01:15;19.38;;;9.38;;
34505;SDS011;20748;42.632;23.198;2024-03-22T01:03:49;25.25;;;10.10;;
34505;SDS011;20748;42.632;23.198;2024-03-22T01:06:21;20.08;;;8.20;;
34505;SDS011;20748;42.632;23.198;2024-03-22T01:08:56;18.00;;;8.02;;
34505;SDS011;20748;42.632;23.198;2024-03-22T01:11:28;20.27;;;9.02;;
34505;SDS011;20748;42.632;23.198;2024-03-22T01:14:00;20.55;;;8.98;;
34505;SDS011;20748;42.632;23.198;2024-03-22T01:16:32;19.13;;;7.82;;
34505;SDS011;20748;42.632;23.198;2024-03-22T01:19:06;19.65;;;6.63;;
34505;SDS011;20748;42.632;23.198;2024-03-22T01:21:38;12.63;;;5.93;;
34505;SDS011;20748;42.632;23.198;2024-03-22T01:24:10;11.18;;;4.20;;
34505;SDS011;20748;42.632;23.198;2024-03-22T01:26:42;8.48;;;4.75;;
34505;SDS011;20748;42.632;23.198;2024-03-22T01:29:15;7.95;;;3.20;;
34505;SDS011;20748;42.632;23.198;2024-03-22T01:31:47;6.78;;;3.90;;
34505;SDS011;20748;42.632;23.198;2024-03-22T01:34:21;8.68;;;3.75;;
34505;SDS011;20748;42.632;23.198;2024-03-22T01:36:53;7.65;;;3.60;;
34505;SDS011;20748;42.632;23.198;2024-03-22T01:39:25;7.55;;;3.30;;
34505;SDS011;20748;42.632;23.198;2024-03-22T01:41:57;5.63;;;2.97;;
34505;SDS011;20748;42.632;23.198;2024-03-22T01:44:31;6.53;;;3.92;;
34505;SDS011;20748;42.632;23.198;2024-03-22T01:47:04;9.25;;;3.72;;
34505;SDS011;20748;42.632;23.198;2024-03-22T01:49:38;5.72;;;3.53;;
34505;SDS011;20748;42.632;23.198;2024-03-22T01:52:09;16.00;;;7.88;;
34505;SDS011;20748;42.632;23.198;2024-03-22T01:54:42;27.23;;;10.70;;
34505;SDS011;20748;42.632;23.198;2024-03-22T01:57:14;23.98;;;9.07;;
34505;SDS011;20748;42.632;23.198;2024-03-22T01:59:46;11.00;;;5.93;;
34505;SDS011;20748;42.632;23.198;2024-03-22T02:02:21;8.85;;;4.22;;
34505;SDS011;20748;42.632;23.198;2024-03-22T02:04:55;24.17;;;8.38;;
34505;SDS011;20748;42.632;23.198;2024-03-22T02:07:27;20.95;;;8.35;;
34505;SDS011;20748;42.632;23.198;2024-03-22T02:10:02;26.27;;;9.45;;
34505;SDS011;20748;42.632;23.198;2024-03-22T02:12:34;15.85;;;6.57;;
34505;SDS011;20748;42.632;23.198;2024-03-22T02:15:07;8.07;;;4.10;;
34505;SDS011;20748;42.632;23.198;2024-03-22T02:17:39;12.23;;;4.43;;
34505;SDS011;20748;42.632;23.198;2024-03-22T02:20:13;14.35;;;5.25;;
34505;SDS011;20748;42.632;23.198;2024-03-22T02:22:45;10.10;;;3.83;;
34505;SDS011;20748;42.632;23.198;2024-03-22T02:25:19;15.63;;;6.57;;
34505;SDS011;20748;42.632;23.198;2024-03-22T02:27:51;17.17;;;8.57;;
34505;SDS011;20748;42.632;23.198;2024-03-22T02:30:24;16.83;;;7.68;;
34505;SDS011;20748;42.632;23.198;2024-03-22T02:32:55;15.88;;;7.35;;
34505;SDS011;20748;42.632;23.198;2024-03-22T02:35:28;16.95;;;7.85;;
34505;SDS011;20748;42.632;23.198;2024-03-22T02:38:00;16.00;;;6.85;;
34505;SDS011;20748;42.632;23.198;2024-03-22T02:40:34;16.23;;;7.03;;
34505;SDS011;20748;42.632;23.198;2024-03-22T02:43:05;18.48;;;7.50;;
34505;SDS011;20748;42.632;23.198;2024-03-22T02:45:38;14.65;;;6.93;;
34505;SDS011;20748;42.632;23.198;2024-03-22T02:48:11;20.48;;;7.88;;
34505;SDS011;20748;42.632;23.198;2024-03-22T02:50:43;18.52;;;7.60;;
34505;SDS011;20748;42.632;23.198;2024-03-22T02:53:15;23.48;;;8.43;;
34505;SDS011;20748;42.632;23.198;2024-03-22T02:55:49;22.60;;;8.60;;
34505;SDS011;20748;42.632;23.198;2024-03-22T02:58:21;22.65;;;7.88;;
34505;SDS011;20748;42.632;23.198;2024-03-22T03:00:54;21.92;;;9.27;;
34505;SDS011;20748;42.632;23.198;2024-03-22T03:03:25;21.00;;;9.07;;
34505;SDS011;20748;42.632;23.198;2024-03-22T03:05:58;25.60;;;9.07;;
34505;SDS011;20748;42.632;23.198;2024-03-22T03:08:30;23.48;;;8.90;;
34505;SDS011;20748;42.632;23.198;2024-03-22T03:11:04;21.42;;;8.05;;
34505;SDS011;20748;42.632;23.198;2024-03-22T03:13:35;20.48;;;7.75;;
34505;SDS011;20748;42.632;23.198;2024-03-22T03:16:08;22.20;;;8.82;;
34505;SDS011;20748;42.632;23.198;2024-03-22T03:18:40;14.82;;;7.13;;
34505;SDS011;20748;42.632;23.198;2024-03-22T03:21:12;17.73;;;8.00;;
34505;SDS011;20748;42.632;23.198;2024-03-22T03:23:44;18.65;;;7.95;;
34505;SDS011;20748;42.632;23.198;2024-03-22T03:26:18;42.90;;;14.73;;
34505;SDS011;20748;42.632;23.198;2024-03-22T03:28:50;36.67;;;12.55;;
34505;SDS011;20748;42.632;23.198;2024-03-22T03:31:22;51.95;;;16.13;;
34505;SDS011;20748;42.632;23.198;2024-03-22T03:33:54;47.05;;;17.00;;
34505;SDS011;20748;42.632;23.198;2024-03-22T03:36:27;33.33;;;12.02;;
34505;SDS011;20748;42.632;23.198;2024-03-22T03:38:58;24.95;;;10.90;;
34505;SDS011;20748;42.632;23.198;2024-03-22T03:41:33;33.45;;;13.32;;
34505;SDS011;20748;42.632;23.198;2024-03-22T03:44:05;30.90;;;11.30;;
34505;SDS011;20748;42.632;23.198;2024-03-22T03:46:37;20.17;;;7.82;;
34505;SDS011;20748;42.632;23.198;2024-03-22T03:49:09;13.23;;;5.68;;
34505;SDS011;20748;42.632;23.198;2024-03-22T03:51:42;14.70;;;6.07;;
34505;SDS011;20748;42.632;23.198;2024-03-22T03:54:14;19.42;;;7.45;;
34505;SDS011;20748;42.632;23.198;2024-03-22T03:56:48;18.77;;;7.18;;
34505;SDS011;20748;42.632;23.198;2024-03-22T03:59:20;12.82;;;5.15;;
34505;SDS011;20748;42.632;23.198;2024-03-22T04:01:52;10.90;;;6.65;;
34505;SDS011;20748;42.632;23.198;2024-03-22T04:04:24;21.02;;;8.45;;
34505;SDS011;20748;42.632;23.198;2024-03-22T04:06:57;20.10;;;8.50;;
34505;SDS011;20748;42.632;23.198;2024-03-22T04:09:28;17.33;;;7.93;;
34505;SDS011;20748;42.632;23.198;2024-03-22T04:12:02;11.95;;;5.28;;
34505;SDS011;20748;42.632;23.198;2024-03-22T04:14:34;22.85;;;8.27;;
34505;SDS011;20748;42.632;23.198;2024-03-22T04:17:07;21.73;;;9.43;;
34505;SDS011;20748;42.632;23.198;2024-03-22T04:19:39;28.00;;;9.38;;
34505;SDS011;20748;42.632;23.198;2024-03-22T04:22:11;22.80;;;10.35;;
34505;SDS011;20748;42.632;23.198;2024-03-22T04:24:43;31.77;;;10.43;;
34505;SDS011;20748;42.632;23.198;2024-03-22T04:27:17;27.40;;;10.32;;
34505;SDS011;20748;42.632;23.198;2024-03-22T04:29:49;26.67;;;9.52;;
34505;SDS011;20748;42.632;23.198;2024-03-22T04:32:21;20.10;;;8.80;;
34505;SDS011;20748;42.632;23.198;2024-03-22T04:34:53;21.15;;;9.60;;
34505;SDS011;20748;42.632;23.198;2024-03-22T04:37:26;15.10;;;6.57;;
34505;SDS011;20748;42.632;23.198;2024-03-22T04:39:59;15.63;;;5.47;;
34505;SDS011;20748;42.632;23.198;2024-03-22T04:42:33;10.38;;;4.47;;
34505;SDS011;20748;42.632;23.198;2024-03-22T04:45:06;22.85;;;9.15;;
34505;SDS011;20748;42.632;23.198;2024-03-22T04:47:39;19.75;;;9.30;;
34505;SDS011;20748;42.632;23.198;2024-03-22T04:50:11;24.20;;;9.15;;
34505;SDS011;20748;42.632;23.198;2024-03-22T04:52:45;25.35;;;9.30;;
34505;SDS011;20748;42.632;23.198;2024-03-22T04:55:17;13.63;;;6.25;;
34505;SDS011;20748;42.632;23.198;2024-03-22T04:57:51;12.70;;;6.43;;
34505;SDS011;20748;42.632;23.198;2024-03-22T05:00:23;10.98;;;4.00;;
34505;SDS011;20748;42.632;23.198;2024-03-22T05:02:57;12.13;;;4.40;;
34505;SDS011;20748;42.632;23.198;2024-03-22T05:05:28;7.55;;;3.78;;
34505;SDS011;20748;42.632;23.198;2024-03-22T05:08:01;11.00;;;5.03;;
34505;SDS011;20748;42.632;23.198;2024-03-22T05:10:34;11.23;;;4.30;;
34505;SDS011;20748;42.632;23.198;2024-03-22T05:13:08;10.48;;;4.38;;
34505;SDS011;20748;42.632;23.198;2024-03-22T05:15:39;10.98;;;3.72;;
34505;SDS011;20748;42.632;23.198;2024-03-22T05:18:12;8.48;;;3.97;;
34505;SDS011;20748;42.632;23.198;2024-03-22T05:20:44;8.88;;;3.53;;
34505;SDS011;20748;42.632;23.198;2024-03-22T05:23:16;10.27;;;4.88;;
34505;SDS011;20748;42.632;23.198;2024-03-22T05:25:49;10.30;;;4.80;;
34505;SDS011;20748;42.632;23.198;2024-03-22T05:28:23;8.70;;;4.95;;
34505;SDS011;20748;42.632;23.198;2024-03-22T05:30:54;11.88;;;4.40;;
34505;SDS011;20748;42.632;23.198;2024-03-22T05:33:27;8.45;;;4.40;;
34505;SDS011;20748;42.632;23.198;2024-03-22T05:35:59;7.78;;;4.13;;
34505;SDS011;20748;42.632;23.198;2024-03-22T05:38:32;7.47;;;4.07;;
34505;SDS011;20748;42.632;23.198;2024-03-22T05:41:04;8.55;;;4.57;;
34505;SDS011;20748;42.632;23.198;2024-03-22T05:43:38;9.73;;;5.15;;
34505;SDS011;20748;42.632;23.198;2024-03-22T05:46:10;12.23;;;5.38;;
34505;SDS011;20748;42.632;23.198;2024-03-22T05:48:43;12.70;;;4.93;;
34505;SDS011;20748;42.632;23.198;2024-03-22T05:51:15;10.55;;;5.35;;
34505;SDS011;20748;42.632;23.198;2024-03-22T05:53:48;10.13;;;5.07;;
34505;SDS011;20748;42.632;23.198;2024-03-22T05:56:20;10.73;;;4.95;;
34505;SDS011;20748;42.632;23.198;2024-03-22T05:58:54;9.32;;;5.45;;
34505;SDS011;20748;42.632;23.198;2024-03-22T06:01:25;11.50;;;5.30;;
34505;SDS011;20748;42.632;23.198;2024-03-22T06:03:58;9.30;;;5.10;;
34505;SDS011;20748;42.632;23.198;2024-03-22T06:06:30;10.02;;;4.90;;
34505;SDS011;20748;42.632;23.198;2024-03-22T06:09:02;9.68;;;4.93;;
34505;SDS011;20748;42.632;23.198;2024-03-22T06:11:35;7.90;;;4.50;;
34505;SDS011;20748;42.632;23.198;2024-03-22T06:14:09;12.55;;;4.75;;
34505;SDS011;20748;42.632;23.198;2024-03-22T06:16:41;7.72;;;3.65;;
34505;SDS011;20748;42.632;23.198;2024-03-22T06:19:13;9.05;;;4.95;;
34505;SDS011;20748;42.632;23.198;2024-03-22T06:21:46;7.43;;;4.40;;
34505;SDS011;20748;42.632;23.198;2024-03-22T06:24:17;15.75;;;4.75;;
34505;SDS011;20748;42.632;23.198;2024-03-22T06:26:50;9.25;;;4.45;;
34505;SDS011;20748;42.632;23.198;2024-03-22T06:29:23;8.88;;;4.18;;
34505;SDS011;20748;42.632;23.198;2024-03-22T06:31:56;9.13;;;4.18;;
34505;SDS011;20748;42.632;23.198;2024-03-22T06:34:27;12.38;;;4.90;;
34505;SDS011;20748;42.632;23.198;2024-03-22T06:37:00;12.77;;;5.15;;
34505;SDS011;20748;42.632;23.198;2024-03-22T06:39:33;11.27;;;4.75;;
34505;SDS011;20748;42.632;23.198;2024-03-22T06:42:05;7.57;;;4.13;;
34505;SDS011;20748;42.632;23.198;2024-03-22T06:44:38;10.77;;;5.30;;
34505;SDS011;20748;42.632;23.198;2024-03-22T06:47:11;13.18;;;5.05;;
34505;SDS011;20748;42.632;23.198;2024-03-22T06:49:43;8.85;;;4.00;;
34505;SDS011;20748;42.632;23.198;2024-03-22T06:52:16;13.30;;;4.65;;
34505;SDS011;20748;42.632;23.198;2024-03-22T06:54:49;14.07;;;5.57;;
34505;SDS011;20748;42.632;23.198;2024-03-22T06:57:23;13.38;;;6.05;;
34505;SDS011;20748;42.632;23.198;2024-03-22T06:59:56;14.38;;;5.82;;
34505;SDS011;20748;42.632;23.198;2024-03-22T07:02:29;10.02;;;5.45;;
34505;SDS011;20748;42.632;23.198;2024-03-22T07:05:00;16.13;;;6.55;;
34505;SDS011;20748;42.632;23.198;2024-03-22T07:07:35;11.48;;;6.03;;
34505;SDS011;20748;42.632;23.198;2024-03-22T07:10:08;14.48;;;6.47;;
34505;SDS011;20748;42.632;23.198;2024-03-22T07:12:41;11.77;;;5.43;;
34505;SDS011;20748;42.632;23.198;2024-03-22T07:15:14;16.35;;;5.25;;
34505;SDS011;20748;42.632;23.198;2024-03-22T07:17:47;11.65;;;5.88;;
34505;SDS011;20748;42.632;23.198;2024-03-22T07:20:19;10.65;;;4.88;;
34505;SDS011;20748;42.632;23.198;2024-03-22T07:22:51;12.35;;;5.90;;
34505;SDS011;20748;42.632;23.198;2024-03-22T07:25:24;12.48;;;6.00;;
34505;SDS011;20748;42.632;23.198;2024-03-22T07:27:57;10.85;;;5.97;;
34505;SDS011;20748;42.632;23.198;2024-03-22T07:30:30;12.27;;;6.20;;
34505;SDS011;20748;42.632;23.198;2024-03-22T07:33:02;11.98;;;6.60;;
34505;SDS011;20748;42.632;23.198;2024-03-22T07:35:34;16.67;;;7.20;;
34505;SDS011;20748;42.632;23.198;2024-03-22T07:38:07;13.05;;;6.25;;
34505;SDS011;20748;42.632;23.198;2024-03-22T07:40:38;10.30;;;6.40;;
34505;SDS011;20748;42.632;23.198;2024-03-22T07:43:11;15.07;;;6.03;;
34505;SDS011;20748;42.632;23.198;2024-03-22T07:45:47;9.43;;;5.90;;
34505;SDS011;20748;42.632;23.198;2024-03-22T07:48:20;14.50;;;6.45;;
34505;SDS011;20748;42.632;23.198;2024-03-22T07:50:55;12.48;;;5.60;;
34505;SDS011;20748;42.632;23.198;2024-03-22T07:53:28;11.30;;;5.30;;
34505;SDS011;20748;42.632;23.198;2024-03-22T07:56:00;11.10;;;5.07;;
34505;SDS011;20748;42.632;23.198;2024-03-22T07:58:33;11.05;;;5.55;;
34505;SDS011;20748;42.632;23.198;2024-03-22T08:01:06;14.63;;;7.00;;
34505;SDS011;20748;42.632;23.198;2024-03-22T08:03:39;11.63;;;6.32;;
34505;SDS011;20748;42.632;23.198;2024-03-22T08:06:10;14.38;;;5.55;;
34505;SDS011;20748;42.632;23.198;2024-03-22T08:08:43;9.23;;;4.97;;
34505;SDS011;20748;42.632;23.198;2024-03-22T08:11:15;11.93;;;5.78;;
34505;SDS011;20748;42.632;23.198;2024-03-22T08:13:48;12.90;;;6.47;;
34505;SDS011;20748;42.632;23.198;2024-03-22T08:16:21;12.63;;;6.45;;
34505;SDS011;20748;42.632;23.198;2024-03-22T08:18:54;13.27;;;6.35;;
34505;SDS011;20748;42.632;23.198;2024-03-22T08:21:25;11.18;;;6.03;;
34505;SDS011;20748;42.632;23.198;2024-03-22T08:23:58;11.88;;;5.30;;
34505;SDS011;20748;42.632;23.198;2024-03-22T08:26:30;10.10;;;4.68;;
34505;SDS011;20748;42.632;23.198;2024-03-22T08:29:02;8.82;;;5.00;;
34505;SDS011;20748;42.632;23.198;2024-03-22T08:31:35;10.70;;;5.03;;
34505;SDS011;20748;42.632;23.198;2024-03-22T08:34:08;6.38;;;3.55;;
34505;SDS011;20748;42.632;23.198;2024-03-22T08:36:40;9.48;;;4.40;;
34505;SDS011;20748;42.632;23.198;2024-03-22T08:39:12;8.02;;;4.05;;
34505;SDS011;20748;42.632;23.198;2024-03-22T08:41:44;6.70;;;3.80;;
34505;SDS011;20748;42.632;23.198;2024-03-22T08:44:17;6.55;;;3.67;;
34505;SDS011;20748;42.632;23.198;2024-03-22T08:46:50;7.97;;;4.22;;
34505;SDS011;20748;42.632;23.198;2024-03-22T08:49:23;6.85;;;3.50;;
34505;SDS011;20748;42.632;23.198;2024-03-22T08:51:54;7.75;;;3.38;;
34505;SDS011;20748;42.632;23.198;2024-03-22T08:54:27;9.35;;;3.95;;
34505;SDS011;20748;42.632;23.198;2024-03-22T08:56:59;6.68;;;3.35;;
34505;SDS011;20748;42.632;23.198;2024-03-22T08:59:32;7.22;;;3.00;;
34505;SDS011;20748;42.632;23.198;2024-03-22T09:02:07;8.65;;;4.65;;
34505;SDS011;20748;42.632;23.198;2024-03-22T09:04:39;8.32;;;3.03;;
34505;SDS011;20748;42.632;23.198;2024-03-22T09:07:11;7.20;;;3.72;;
34505;SDS011;20748;42.632;23.198;2024-03-22T09:09:43;8.43;;;3.75;;
34505;SDS011;20748;42.632;23.198;2024-03-22T09:12:16;7.57;;;3.38;;
34505;SDS011;20748;42.632;23.198;2024-03-22T09:14:47;11.40;;;4.60;;
34505;SDS011;20748;42.632;23.198;2024-03-22T09:17:21;11.05;;;3.80;;
34505;SDS011;20748;42.632;23.198;2024-03-22T09:19:53;9.23;;;4.60;;
34505;SDS011;20748;42.632;23.198;2024-03-22T09:22:26;11.20;;;3.10;;
34505;SDS011;20748;42.632;23.198;2024-03-22T09:24:58;8.18;;;2.97;;
34505;SDS011;20748;42.632;23.198;2024-03-22T09:27:31;6.80;;;3.28;;
34505;SDS011;20748;42.632;23.198;2024-03-22T09:30:03;5.70;;;3.25;;
34505;SDS011;20748;42.632;23.198;2024-03-22T09:32:38;6.43;;;3.05;;
34505;SDS011;20748;42.632;23.198;2024-03-22T09:35:11;6.47;;;3.17;;
34505;SDS011;20748;42.632;23.198;2024-03-22T09:37:45;8.68;;;3.13;;
34505;SDS011;20748;42.632;23.198;2024-03-22T09:40:18;7.07;;;3.33;;
34505;SDS011;20748;42.632;23.198;2024-03-22T09:42:50;5.88;;;3.17;;
34505;SDS011;20748;42.632;23.198;2024-03-22T09:45:24;5.72;;;3.22;;
34505;SDS011;20748;42.632;23.198;2024-03-22T09:47:59;6.47;;;2.80;;
34505;SDS011;20748;42.632;23.198;2024-03-22T09:50:33;4.72;;;2.60;;
34505;SDS011;20748;42.632;23.198;2024-03-22T09:53:06;4.50;;;2.60;;
34505;SDS011;20748;42.632;23.198;2024-03-22T09:55:42;5.15;;;2.33;;
34505;SDS011;20748;42.632;23.198;2024-03-22T09:58:14;6.38;;;2.92;;
34505;SDS011;20748;42.632;23.198;2024-03-22T10:00:48;7.05;;;3.45;;
34505;SDS011;20748;42.632;23.198;2024-03-22T10:03:21;6.13;;;2.95;;
34505;SDS011;20748;42.632;23.198;2024-03-22T10:05:54;4.65;;;2.42;;
34505;SDS011;20748;42.632;23.198;2024-03-22T10:08:25;7.07;;;3.13;;
34505;SDS011;20748;42.632;23.198;2024-03-22T10:11:01;5.53;;;2.80;;
34505;SDS011;20748;42.632;23.198;2024-03-22T10:13:34;6.10;;;2.80;;
34505;SDS011;20748;42.632;23.198;2024-03-22T10:16:07;5.88;;;2.65;;
34505;SDS011;20748;42.632;23.198;2024-03-22T10:18:40;6.72;;;2.13;;
34505;SDS011;20748;42.632;23.198;2024-03-22T10:21:16;4.88;;;2.47;;
34505;SDS011;20748;42.632;23.198;2024-03-22T10:23:49;5.18;;;2.72;;
34505;SDS011;20748;42.632;23.198;2024-03-22T10:26:23;4.72;;;2.28;;
34505;SDS011;20748;42.632;23.198;2024-03-22T10:28:56;5.30;;;2.40;;
34505;SDS011;20748;42.632;23.198;2024-03-22T10:31:29;5.28;;;2.78;;
34505;SDS011;20748;42.632;23.198;2024-03-22T10:34:03;6.00;;;3.15;;
34505;SDS011;20748;42.632;23.198;2024-03-22T10:36:36;6.40;;;2.30;;
34505;SDS011;20748;42.632;23.198;2024-03-22T10:39:08;4.68;;;2.42;;
34505;SDS011;20748;42.632;23.198;2024-03-22T10:41:43;5.82;;;2.33;;
34505;SDS011;20748;42.632;23.198;2024-03-22T10:44:15;6.32;;;2.88;;
34505;SDS011;20748;42.632;23.198;2024-03-22T10:46:48;4.40;;;2.42;;
34505;SDS011;20748;42.632;23.198;2024-03-22T10:49:21;4.97;;;2.88;;
34505;SDS011;20748;42.632;23.198;2024-03-22T10:51:56;4.25;;;2.38;;
34505;SDS011;20748;42.632;23.198;2024-03-22T10:54:32;4.85;;;2.67;;
34505;SDS011;20748;42.632;23.198;2024-03-22T10:57:11;4.40;;;2.42;;
34505;SDS011;20748;42.632;23.198;2024-03-22T10:59:45;9.20;;;3.13;;
34505;SDS011;20748;42.632;23.198;2024-03-22T11:02:23;3.92;;;2.22;;
34505;SDS011;20748;42.632;23.198;2024-03-22T11:05:00;4.20;;;2.22;;
34505;SDS011;20748;42.632;23.198;2024-03-22T11:07:32;4.78;;;2.60;;
34505;SDS011;20748;42.632;23.198;2024-03-22T11:10:05;7.07;;;4.65;;
34505;SDS011;20748;42.632;23.198;2024-03-22T11:12:39;7.05;;;3.78;;
34505;SDS011;20748;42.632;23.198;2024-03-22T11:15:10;13.10;;;6.45;;
34505;SDS011;20748;42.632;23.198;2024-03-22T11:17:44;6.85;;;3.67;;
34505;SDS011;20748;42.632;23.198;2024-03-22T11:20:17;5.50;;;2.80;;
34505;SDS011;20748;42.632;23.198;2024-03-22T11:22:50;9.05;;;3.17;;
34505;SDS011;20748;42.632;23.198;2024-03-22T11:25:22;5.47;;;2.45;;
34505;SDS011;20748;42.632;23.198;2024-03-22T11:27:55;4.60;;;2.40;;
34505;SDS011;20748;42.632;23.198;2024-03-22T11:30:28;5.25;;;2.53;;
34505;SDS011;20748;42.632;23.198;2024-03-22T11:33:02;5.75;;;2.55;;
34505;SDS011;20748;42.632;23.198;2024-03-22T11:35:35;9.88;;;3.28;;
34505;SDS011;20748;42.632;23.198;2024-03-22T11:38:10;4.18;;;2.67;;
34505;SDS011;20748;42.632;23.198;2024-03-22T11:40:42;5.78;;;2.63;;
34505;SDS011;20748;42.632;23.198;2024-03-22T11:43:15;10.52;;;2.80;;
34505;SDS011;20748;42.632;23.198;2024-03-22T11:45:48;5.50;;;2.30;;
34505;SDS011;20748;42.632;23.198;2024-03-22T11:48:20;4.45;;;2.65;;
34505;SDS011;20748;42.632;23.198;2024-03-22T11:50:55;5.95;;;2.72;;
34505;SDS011;20748;42.632;23.198;2024-03-22T11:53:30;4.18;;;2.40;;
34505;SDS011;20748;42.632;23.198;2024-03-22T11:56:02;4.13;;;2.65;;
34505;SDS011;20748;42.632;23.198;2024-03-22T11:58:35;5.63;;;2.40;;
34505;SDS011;20748;42.632;23.198;2024-03-22T12:01:08;8.77;;;3.65;;
34505;SDS011;20748;42.632;23.198;2024-03-22T12:03:43;5.95;;;3.42;;
34505;SDS011;20748;42.632;23.198;2024-03-22T12:06:16;6.30;;;3.28;;
34505;SDS011;20748;42.632;23.198;2024-03-22T12:08:48;9.07;;;4.65;;
34505;SDS011;20748;42.632;23.198;2024-03-22T12:11:20;4.78;;;2.50;;
34505;SDS011;20748;42.632;23.198;2024-03-22T12:13:53;7.90;;;4.30;;
34505;SDS011;20748;42.632;23.198;2024-03-22T12:16:25;6.25;;;3.47;;
34505;SDS011;20748;42.632;23.198;2024-03-22T12:18:57;5.95;;;3.40;;
34505;SDS011;20748;42.632;23.198;2024-03-22T12:21:31;12.65;;;3.40;;
34505;SDS011;20748;42.632;23.198;2024-03-22T12:24:04;6.22;;;3.42;;
34505;SDS011;20748;42.632;23.198;2024-03-22T12:26:36;3.50;;;2.60;;
34505;SDS011;20748;42.632;23.198;2024-03-22T12:29:09;4.03;;;2.33;;
34505;SDS011;20748;42.632;23.198;2024-03-22T12:31:41;4.90;;;2.35;;
34505;SDS011;20748;42.632;23.198;2024-03-22T12:34:14;6.15;;;2.47;;
34505;SDS011;20748;42.632;23.198;2024-03-22T12:36:47;3.85;;;2.55;;
34505;SDS011;20748;42.632;23.198;2024-03-22T12:39:20;5.30;;;2.78;;
34505;SDS011;20748;42.632;23.198;2024-03-22T12:41:51;5.55;;;2.70;;
34505;SDS011;20748;42.632;23.198;2024-03-22T12:44:25;4.95;;;2.53;;
34505;SDS011;20748;42.632;23.198;2024-03-22T12:46:57;5.35;;;2.67;;
34505;SDS011;20748;42.632;23.198;2024-03-22T12:49:30;6.28;;;3.00;;
34505;SDS011;20748;42.632;23.198;2024-03-22T12:52:03;6.15;;;2.70;;
34505;SDS011;20748;42.632;23.198;2024-03-22T12:54:36;7.93;;;3.78;;
34505;SDS011;20748;42.632;23.198;2024-03-22T12:57:08;5.10;;;3.45;;
34505;SDS011;20748;42.632;23.198;2024-03-22T12:59:42;4.18;;;2.58;;
34505;SDS011;20748;42.632;23.198;2024-03-22T13:02:13;6.75;;;2.65;;
34505;SDS011;20748;42.632;23.198;2024-03-22T13:04:46;4.70;;;2.63;;
34505;SDS011;20748;42.632;23.198;2024-03-22T13:07:19;6.95;;;2.33;;
34505;SDS011;20748;42.632;23.198;2024-03-22T13:09:52;6.30;;;2.60;;
34505;SDS011;20748;42.632;23.198;2024-03-22T13:12:24;4.03;;;2.30;;
34505;SDS011;20748;42.632;23.198;2024-03-22T13:14:56;4.40;;;2.42;;
34505;SDS011;20748;42.632;23.198;2024-03-22T13:17:28;3.78;;;2.20;;
34505;SDS011;20748;42.632;23.198;2024-03-22T13:20:01;5.28;;;2.70;;
34505;SDS011;20748;42.632;23.198;2024-03-22T13:22:42;4.43;;;2.67;;
34505;SDS011;20748;42.632;23.198;2024-03-22T13:25:15;6.97;;;3.10;;
34505;SDS011;20748;42.632;23.198;2024-03-22T13:27:46;5.78;;;2.83;;
34505;SDS011;20748;42.632;23.198;2024-03-22T13:30:19;6.82;;;2.55;;
34505;SDS011;20748;42.632;23.198;2024-03-22T13:32:51;4.57;;;2.47;;
34505;SDS011;20748;42.632;23.198;2024-03-22T13:35:24;5.13;;;2.92;;
34505;SDS011;20748;42.632;23.198;2024-03-22T13:37:57;4.90;;;2.95;;
34505;SDS011;20748;42.632;23.198;2024-03-22T13:40:30;3.60;;;2.55;;
34505;SDS011;20748;42.632;23.198;2024-03-22T13:43:01;4.32;;;2.35;;
34505;SDS011;20748;42.632;23.198;2024-03-22T13:45:38;3.78;;;2.22;;
34505;SDS011;20748;42.632;23.198;2024-03-22T13:48:11;9.60;;;4.10;;
34505;SDS011;20748;42.632;23.198;2024-03-22T13:50:44;5.78;;;2.90;;
34505;SDS011;20748;42.632;23.198;2024-03-22T13:53:19;5.20;;;2.50;;
34505;SDS011;20748;42.632;23.198;2024-03-22T13:55:53;4.85;;;2.38;;
34505;SDS011;20748;42.632;23.198;2024-03-22T13:58:25;4.80;;;2.60;;
34505;SDS011;20748;42.632;23.198;2024-03-22T14:00:59;5.90;;;3.03;;
34505;SDS011;20748;42.632;23.198;2024-03-22T14:03:31;5.47;;;2.42;;
34505;SDS011;20748;42.632;23.198;2024-03-22T14:06:04;3.95;;;2.70;;
34505;SDS011;20748;42.632;23.198;2024-03-22T14:08:37;7.05;;;2.80;;
34505;SDS011;20748;42.632;23.198;2024-03-22T14:11:10;4.95;;;3.03;;
34505;SDS011;20748;42.632;23.198;2024-03-22T14:13:41;5.60;;;2.80;;
34505;SDS011;20748;42.632;23.198;2024-03-22T14:16:15;4.57;;;2.78;;
34505;SDS011;20748;42.632;23.198;2024-03-22T14:18:48;7.03;;;3.13;;
34505;SDS011;20748;42.632;23.198;2024-03-22T14:21:20;5.10;;;3.20;;
34505;SDS011;20748;42.632;23.198;2024-03-22T14:23:54;5.03;;;2.75;;
34505;SDS011;20748;42.632;23.198;2024-03-22T14:26:27;6.82;;;3.20;;
34505;SDS011;20748;42.632;23.198;2024-03-22T14:28:58;8.90;;;5.53;;
34505;SDS011;20748;42.632;23.198;2024-03-22T14:31:31;6.03;;;2.75;;
34505;SDS011;20748;42.632;23.198;2024-03-22T14:34:03;5.47;;;2.65;;
34505;SDS011;20748;42.632;23.198;2024-03-22T14:36:38;6.28;;;3.15;;
34505;SDS011;20748;42.632;23.198;2024-03-22T14:39:11;8.05;;;4.65;;
34505;SDS011;20748;42.632;23.198;2024-03-22T14:41:43;6.15;;;3.13;;
34505;SDS011;20748;42.632;23.198;2024-03-22T14:44:15;6.57;;;3.55;;
34505;SDS011;20748;42.632;23.198;2024-03-22T14:46:48;6.35;;;3.20;;
34505;SDS011;20748;42.632;23.198;2024-03-22T14:49:19;5.28;;;2.55;;
34505;SDS011;20748;42.632;23.198;2024-03-22T14:51:53;4.25;;;2.25;;
34505;SDS011;20748;42.632;23.198;2024-03-22T14:54:26;4.50;;;2.42;;
34505;SDS011;20748;42.632;23.198;2024-03-22T14:56:59;5.30;;;3.05;;